Impacts TAF Board INFO
FOR SITUATIONAL AWARENESS. NOT TO BE USED FOR FLIGHT PLANNING PURPOSES.
IDs:

KCVG - Cincinnati Intl, KY, US

Issued at 0539 UTC 22 Jan 2017
Updated at 0551 UTC 22 Jan 2017
Potential Impact None Slight Moderate High
Time0452Z 22/06Z 22/07Z 22/08Z 22/09Z 22/10Z 22/11Z 22/12Z 22/13Z 22/14Z 22/15Z 22/16Z 22/17Z 22/18Z
Type OBS PRVL PRVL PRVL PRVL PRVL PRVL PRVL PRVL PRVL PRVL PRVL PRVL PRVL
VIS 9 >6 >6 >6 >6 >6 >6 >6 >6 >6 >6 >6 >6 >6
CIG 110 110 110 110 110 110 110 110 80 80 80 80 80 80
Cover BKN BKN BKN BKN BKN BKN BKN BKN OVC OVC OVC OVC OVC OVC
FltCat VFR VFR VFR VFR VFR VFR VFR VFR VFR VFR VFR VFR VFR VFR
WX -- -- -- -- -- -- -- -- -- -- -- -- -- --
WDir 190 160 160 160 160 160 160 160 80 80 80 80 80 80
WSpd 4 3 3 3 3 3 3 3 6 6 6 6 6 6
WGst -- -- -- -- -- -- -- -- -- -- -- -- -- --

Raw TAF
KCVG 220539Z 2206/2312 16003KT P6SM BKN110
  FM221300 08006KT P6SM OVC080
  FM222000 06010KT P6SM VCSH OVC080
  FM230000 03010KT 5SM -SHRA BR OVC015
  FM231000 36010KT 5SM -SHRA BR OVC007


Raw METAR
KCVG 220452Z 19004KT 9SM SCT085 BKN110 12/11 A2966 RMK AO2 SLP038 T01170111 401830083
KCVG 220352Z 00000KT 10SM SCT080 SCT110 BKN200 13/12 A2965 RMK AO2 SLP036 T01330117
KCVG 220252Z 20003KT 10SM BKN080 14/11 A2964 RMK AO2 SLP033 T01390111 52006

METAR Board
Radar Display
Forecast Discussion

FOR SITUATIONAL AWARENESS. NOT TO BE USED FOR FLIGHT PLANNING PURPOSES.

Page loaded:  05:51 UTC  |   09:51 PM Pacific  |   10:51 PM Mountain  |   11:51 PM Central  |   12:51 AM Eastern

 

ADVISORIES

FORECASTS

FORECASTS

OBSERVATIONS

USER TOOLS

ABOUT US